Flight Track Log - Related Links

Times and Time Zones

All times are in EDT time to prevent confusion due to time zone crossing. See the SWA1969 flight status page for this flight to view local times or setup timezone preferences in your user account.

Time Position Orientation Groundspeed Altitude Reporting Facility
EDT Latitude Longitude Course Direction KTS MPH feet Rate Location/Type
Thu 02:33:59 PM 41.7667 -87.7667 200° South 137 158 2,300  Level Chicago TRACON
Thu 02:34:59 PM 41.7333 -87.7833 200° South 188 216 3,000 1,581 Climbing Chicago TRACON
Thu 02:36:27 PM 41.7514 -87.8853 283° West 209 241 6,200 2,617 Climbing Chicago Center
Thu 02:37:28 PM 41.7639 -87.9825 280° West 232 267 9,500 2,585 Climbing Chicago Center
Thu 02:38:30 PM 41.7775 -88.0794 281° West 269 310 11,500 2,146 Climbing Chicago Center
Thu 02:39:31 PM 41.7742 -88.1828 268° West 280 322 13,900 1,805 Climbing Chicago Center
Thu 02:40:33 PM 41.7719 -88.3058 269° West 328 377 15,200 1,548 Climbing Chicago Center
Thu 02:41:35 PM 41.7717 -88.4403 270° West 361 415 17,100 2,341 Climbing Chicago Center
Thu 02:42:36 PM 41.7775 -88.6083 273° West 379 436 20,000 2,244 Climbing Chicago Center
Thu 02:43:38 PM 41.7503 -88.7464 255° West 383 441 21,700 1,790 Climbing Chicago Center
Thu 02:44:40 PM 41.7192 -88.8858 253° West 391 450 23,700 1,854 Climbing Chicago Center
Thu 02:45:41 PM 41.6881 -89.0239 253° West 393 452 25,500 1,561 Climbing Chicago Center
Thu 02:46:43 PM 41.6575 -89.1644 254° West 395 455 26,900 1,220 Climbing Chicago Center
Thu 02:47:44 PM 41.6258 -89.3097 254° West 407 468 28,000 1,707 Climbing Chicago Center
Thu 02:48:46 PM 41.5883 -89.4819 254° West 404 465 30,400 1,887 Climbing Chicago Center
Thu 02:49:48 PM 41.5600 -89.6008 252° West 390 449 31,900 1,561 Climbing Chicago Center
Thu 02:50:49 PM 41.5306 -89.7342 254° West 378 435 33,600 1,024 Climbing Chicago Center
Thu 02:51:51 PM 41.5014 -89.8647 253° West 371 427 34,000 195 Climbing Chicago Center
Thu 02:52:52 PM 41.4650 -90.0217 253° West 371 427 34,000  Level Chicago Center
Thu 02:53:54 PM 41.4344 -90.1528 253° West 372 428 34,000  Level Chicago Center
Thu 02:54:55 PM 41.4058 -90.2814 254° West 368 423 34,000  Level Chicago Center
Thu 02:55:57 PM 41.3761 -90.4106 253° West 367 422 34,000  Level Chicago Center
Thu 02:56:58 PM 41.3458 -90.5403 253° West 367 422 34,000  Level Chicago Center
Thu 02:57:59 PM 41.3128 -90.6719 252° West 376 433 34,000  Level Chicago Center
Thu 02:59:01 PM 41.2753 -90.7972 248° West 369 425 34,000 98 Level Chicago Center
Thu 03:00:02 PM 41.2306 -90.9458 248° West 363 418 34,200 488 Climbing Chicago Center
Thu 03:01:04 PM 41.1942 -91.0686 249° West 361 415 35,000 390 Climbing Chicago Center
Thu 03:02:05 PM 41.1578 -91.1922 249° West 360 414 35,000  Level Chicago Center
Thu 03:03:07 PM 41.1208 -91.3133 248° West 357 411 35,000  Level Chicago Center
Thu 03:04:08 PM 41.0850 -91.4361 249° West 356 410 35,000 246 Level Chicago Center
Thu 03:05:09 PM 41.0478 -91.5589 248° West 359 413 35,500 488 Climbing Chicago Center
Thu 03:06:11 PM 41.0083 -91.6878 248° West 356 410 36,000 244 Climbing Chicago Center
Thu 03:07:12 PM 40.9708 -91.8086 248° West 358 412 36,000  Level Chicago Center
Thu 03:08:14 PM 40.9333 -91.9311 248° West 362 417 36,000  Level Chicago Center
Thu 03:09:15 PM 40.8950 -92.0556 248° West 368 423 36,000  Level Chicago Center
Thu 03:10:17 PM 40.8489 -92.2061 248° West 373 429 36,000  Level Chicago Center
Thu 03:11:18 PM 40.8092 -92.3322 247° West 375 432 36,000  Level Chicago Center
Thu 03:12:19 PM 40.7694 -92.4592 248° West 379 436 36,000  Level Chicago Center
Thu 03:13:21 PM 40.7294 -92.5861 247° West 380 437 36,000  Level Chicago Center
Thu 03:14:23 PM 40.6889 -92.7139 247° West 382 440 36,000  Level Chicago Center
Thu 03:15:24 PM 40.6492 -92.8417 248° West 383 441 36,000  Level Chicago Center
Thu 03:16:26 PM 40.6008 -92.9914 247° West 377 434 36,000  Level Chicago Center
Thu 03:16:49 PM 40.5883 -93.0269 245° Southwest 375 432 36,000  Level Kansas City Center
Thu 03:17:49 PM 40.5450 -93.1650 248° West 373 429 36,000  Level Kansas City Center
Thu 03:18:51 PM 40.5044 -93.2900 247° West 376 433 36,000  Level Kansas City Center
Thu 03:19:52 PM 40.4642 -93.4158 247° West 377 434 36,000  Level Kansas City Center
Thu 03:20:55 PM 40.4222 -93.5406 246° West 378 435 36,000  Level Kansas City Center
Thu 03:21:57 PM 40.3814 -93.6656 247° West 378 435 36,000  Level Kansas City Center
Thu 03:22:58 PM 40.3406 -93.7900 247° West 375 432 36,000  Level Kansas City Center
Thu 03:23:59 PM 40.2917 -93.9417 247° West 380 437 36,000  Level Kansas City Center
Thu 03:25:00 PM 40.2500 -94.0656 246° West 377 434 36,000  Level Kansas City Center
Thu 03:26:01 PM 40.2083 -94.1931 247° West 375 432 36,000  Level Kansas City Center
Thu 03:27:05 PM 40.1683 -94.3106 246° West 371 427 36,000  Level Kansas City Center
Thu 03:28:05 PM 40.1219 -94.4486 246° West 371 427 36,000  Level Kansas City Center
Thu 03:29:09 PM 40.0833 -94.5661 247° West 369 425 36,000  Level Kansas City Center
Thu 03:30:10 PM 40.0358 -94.7025 246° West 372 428 36,000  Level Kansas City Center
Thu 03:31:11 PM 39.9950 -94.8222 246° West 376 433 36,000  Level Kansas City Center
Thu 03:32:13 PM 39.9481 -94.9592 246° West 373 429 36,000  Level Kansas City Center
Thu 03:33:13 PM 39.9042 -95.0761 244° Southwest 374 430 36,000  Level Kansas City Center
Thu 03:34:16 PM 39.8611 -95.1931 244° Southwest 376 433 36,000  Level Kansas City Center
Thu 03:35:17 PM 39.8117 -95.3275 244° Southwest 373 429 36,000  Level Kansas City Center
Thu 03:36:18 PM 39.7692 -95.4419 244° Southwest 369 425 36,000  Level Kansas City Center
Thu 03:37:21 PM 39.7186 -95.5744 244° Southwest 369 425 36,000  Level Kansas City Center
Thu 03:38:22 PM 39.6767 -95.6878 244° Southwest 365 420 36,000  Level Kansas City Center
Thu 03:39:23 PM 39.6261 -95.8208 244° Southwest 368 423 36,000  Level Kansas City Center
Thu 03:40:25 PM 39.5831 -95.9339 244° Southwest 365 420 36,000  Level Kansas City Center
Thu 03:41:27 PM 39.5322 -96.0656 243° Southwest 367 422 36,000  Level Kansas City Center
Thu 03:42:28 PM 39.4939 -96.1658 244° Southwest 367 422 36,000  Level Kansas City Center
Thu 03:43:30 PM 39.4397 -96.3069 244° Southwest 366 421 36,000  Level Kansas City Center
Thu 03:44:31 PM 39.3947 -96.4228 243° Southwest 363 418 36,000  Level Kansas City Center
Thu 03:45:35 PM 39.3522 -96.5319 243° Southwest 363 418 36,000  Level Kansas City Center
Thu 03:46:35 PM 39.3014 -96.6625 243° Southwest 364 419 36,000  Level Kansas City Center
Thu 03:47:36 PM 39.2575 -96.7744 243° Southwest 365 420 36,000  Level Kansas City Center
Thu 03:48:39 PM 39.2078 -96.9067 244° Southwest 366 421 36,000  Level Kansas City Center
Thu 03:49:40 PM 39.1619 -97.0186 242° Southwest 367 422 36,000  Level Kansas City Center
Thu 03:50:41 PM 39.1100 -97.1514 243° Southwest 370 426 36,000  Level Kansas City Center
Thu 03:51:45 PM 39.0669 -97.2650 244° Southwest 371 427 36,000  Level Kansas City Center
Thu 03:52:47 PM 39.0214 -97.3811 243° Southwest 376 433 36,000  Level Kansas City Center
Thu 03:53:48 PM 38.9675 -97.5150 243° Southwest 378 435 36,000  Level Kansas City Center
Thu 03:54:49 PM 38.9222 -97.6303 243° Southwest 379 436 36,000  Level Kansas City Center
Thu 03:55:51 PM 38.8789 -97.7744 249° West 388 447 36,000  Level Kansas City Center
Thu 03:56:51 PM 38.8428 -97.8864 248° West 388 447 36,000  Level Kansas City Center
Thu 03:57:55 PM 38.7950 -98.0406 248° West 389 448 36,000  Level Kansas City Center
Thu 03:58:57 PM 38.7556 -98.1678 248° West 387 445 36,000  Level Kansas City Center
Thu 03:59:57 PM 38.7150 -98.2953 248° West 388 447 36,000  Level Kansas City Center
Thu 04:01:00 PM 38.6758 -98.4231 249° West 388 447 36,000  Level Kansas City Center
Thu 04:02:01 PM 38.6344 -98.5519 248° West 392 451 36,000  Level Kansas City Center
Thu 04:03:05 PM 38.5933 -98.6819 248° West 395 455 36,000  Level Kansas City Center
Thu 04:04:06 PM 38.5450 -98.8375 248° West 394 453 36,000  Level Kansas City Center
Thu 04:05:07 PM 38.5014 -98.9683 247° West 399 459 36,000  Level Kansas City Center
Thu 04:06:10 PM 38.4600 -99.0975 248° West 398 458 36,000  Level Kansas City Center
Thu 04:07:11 PM 38.4175 -99.2256 247° West 394 453 36,000  Level Kansas City Center
Thu 04:08:12 PM 38.3764 -99.3547 248° West 394 453 36,000  Level Kansas City Center
Thu 04:09:13 PM 38.3339 -99.4828 247° West 393 452 36,000  Level Kansas City Center
Thu 04:10:16 PM 38.2858 -99.6300 247° West 393 452 36,000  Level Kansas City Center
Thu 04:11:18 PM 38.2458 -99.7533 248° West 393 452 36,000  Level Kansas City Center
Thu 04:12:21 PM 38.1981 -99.8981 247° West 397 457 36,000  Level Kansas City Center
Thu 04:13:21 PM 38.1569 -100.0211 247° West 396 456 36,000  Level Kansas City Center
Thu 04:14:22 PM 38.1083 -100.1647 247° West 397 457 36,000  Level Kansas City Center
Thu 04:15:26 PM 38.0683 -100.2881 248° West 396 456 36,000  Level Kansas City Center
Thu 04:16:27 PM 38.0250 -100.4344 249° West 397 457 36,000  Level Kansas City Center
Thu 04:17:27 PM 37.9869 -100.5589 249° West 396 456 36,000  Level Kansas City Center
Thu 04:18:32 PM 37.9436 -100.7025 249° West 395 455 36,000  Level Kansas City Center
Thu 04:19:33 PM 37.9058 -100.8244 249° West 392 451 36,000  Level Kansas City Center
Thu 04:20:33 PM 37.8628 -100.9650 249° West 389 448 36,000  Level Kansas City Center
Thu 04:21:36 PM 37.8256 -101.0858 249° West 389 448 36,000  Level Kansas City Center
Thu 04:22:38 PM 37.7817 -101.2269 249° West 390 449 36,000  Level Kansas City Center
Thu 04:23:41 PM 37.7436 -101.3511 249° West 395 455 36,000  Level Kansas City Center
Thu 04:24:41 PM 37.6986 -101.4947 248° West 395 455 36,000  Level Kansas City Center
Thu 04:25:44 PM 37.6597 -101.6192 248° West 398 458 36,000  Level Kansas City Center
Thu 04:26:44 PM 37.6206 -101.7431 248° West 398 458 36,000  Level Kansas City Center
Thu 04:27:48 PM 37.5753 -101.8878 248° West 397 457 36,000  Level Kansas City Center
Thu 04:28:32 PM 37.5431 -101.9917 249° West 398 458 36,000  Level Albuquerque Center
Thu 04:29:34 PM 37.5044 -102.1164 249° West 398 458 36,000  Level Albuquerque Center
Thu 04:30:36 PM 37.4586 -102.2611 248° West 400 460 36,000  Level Albuquerque Center
Thu 04:31:38 PM 37.4183 -102.3861 248° West 402 463 36,000  Level Albuquerque Center
Thu 04:32:40 PM 37.3722 -102.5281 248° West 404 465 36,000  Level Albuquerque Center
Thu 04:33:42 PM 37.3319 -102.6539 248° West 405 466 36,000  Level Albuquerque Center
Thu 04:34:44 PM 37.2842 -102.7994 248° West 404 465 36,000  Level Albuquerque Center
Thu 04:35:47 PM 37.2431 -102.9236 247° West 402 463 36,000  Level Albuquerque Center
Thu 04:36:49 PM 37.1947 -103.0697 247° West 405 466 36,000  Level Albuquerque Center
Thu 04:37:51 PM 37.1511 -103.1967 247° West 410 472 36,000  Level Albuquerque Center
Thu 04:38:54 PM 37.1028 -103.3431 248° West 407 468 36,000  Level Albuquerque Center
Thu 04:39:55 PM 37.0606 -103.4697 247° West 410 472 36,000  Level Albuquerque Center
Thu 04:40:57 PM 37.0181 -103.5967 247° West 410 472 36,000  Level Albuquerque Center
Thu 04:41:59 PM 36.9678 -103.7436 247° West 409 471 36,000  Level Albuquerque Center
Thu 04:43:01 PM 36.9250 -103.8689 247° West 408 470 36,000  Level Albuquerque Center
Thu 04:44:03 PM 36.8767 -104.0133 247° West 405 466 36,000  Level Albuquerque Center
Thu 04:45:05 PM 36.8328 -104.1381 246° West 406 467 36,000  Level Albuquerque Center
Thu 04:46:07 PM 36.7828 -104.2817 247° West 404 465 36,000  Level Albuquerque Center
Thu 04:47:09 PM 36.7400 -104.4042 246° West 403 464 36,000  Level Albuquerque Center
Thu 04:48:11 PM 36.6903 -104.5469 247° West 401 461 36,000  Level Albuquerque Center
Thu 04:49:13 PM 36.6433 -104.6825 247° West 407 468 36,000  Level Albuquerque Center
Thu 04:50:15 PM 36.5981 -104.8125 247° West 407 468 36,000  Level Albuquerque Center
Thu 04:51:17 PM 36.5533 -104.9425 247° West 407 468 36,000  Level Albuquerque Center
Thu 04:52:19 PM 36.5069 -105.0717 246° West 407 468 36,000  Level Albuquerque Center
Thu 04:53:21 PM 36.4589 -105.2086 246° West 410 472 36,000  Level Albuquerque Center
Thu 04:54:23 PM 36.4122 -105.3367 246° West 421 484 36,000  Level Albuquerque Center
Thu 04:55:25 PM 36.3661 -105.4681 246° West 418 481 36,000  Level Albuquerque Center
Thu 04:56:27 PM 36.3144 -105.6103 246° West 411 473 36,000  Level Albuquerque Center
Thu 04:57:30 PM 36.2681 -105.7383 246° West 408 470 36,000  Level Albuquerque Center
Thu 04:58:32 PM 36.2219 -105.8653 246° West 406 467 36,000  Level Albuquerque Center
Thu 04:59:34 PM 36.1772 -105.9942 247° West 407 468 36,000  Level Albuquerque Center
Thu 05:00:36 PM 36.1308 -106.1167 245° Southwest 399 459 36,000  Level Albuquerque Center
Thu 05:01:38 PM 36.0767 -106.2672 246° West 400 460 36,000  Level Albuquerque Center
Thu 05:02:40 PM 36.0300 -106.3919 245° Southwest 401 461 36,000  Level Albuquerque Center
Thu 05:03:42 PM 35.9847 -106.5175 246° West 401 461 36,000  Level Albuquerque Center
Thu 05:04:44 PM 35.9381 -106.6406 245° Southwest 399 459 36,000  Level Albuquerque Center
Thu 05:05:46 PM 35.8897 -106.7722 246° West 400 460 36,000  Level Albuquerque Center
Thu 05:06:48 PM 35.8381 -106.9119 246° West 400 460 36,000  Level Albuquerque Center
Thu 05:07:50 PM 35.7922 -107.0328 245° Southwest 404 465 36,000  Level Albuquerque Center
Thu 05:08:52 PM 35.7386 -107.1728 245° Southwest 404 465 36,000  Level Albuquerque Center
Thu 05:09:54 PM 35.6939 -107.2922 245° Southwest 403 464 36,000  Level Albuquerque Center
Thu 05:10:56 PM 35.6411 -107.4311 245° Southwest 402 463 36,000  Level Albuquerque Center
Thu 05:11:58 PM 35.5958 -107.5494 245° Southwest 401 461 36,000  Level Albuquerque Center
Thu 05:13:00 PM 35.5433 -107.6875 245° Southwest 400 460 36,000  Level Albuquerque Center
Thu 05:14:02 PM 35.4975 -107.8069 245° Southwest 401 461 36,000  Level Albuquerque Center
Thu 05:15:05 PM 35.4519 -107.9247 245° Southwest 400 460 36,000  Level Albuquerque Center
Thu 05:16:07 PM 35.3978 -108.0661 245° Southwest 405 466 36,000  Level Albuquerque Center
Thu 05:17:09 PM 35.3500 -108.1872 244° Southwest 408 470 36,000  Level Albuquerque Center
Thu 05:18:11 PM 35.2953 -108.3278 245° Southwest 409 471 36,000  Level Albuquerque Center
Thu 05:19:13 PM 35.2486 -108.4469 244° Southwest 406 467 36,000  Level Albuquerque Center
Thu 05:20:15 PM 35.1939 -108.5861 244° Southwest 405 466 36,000  Level Albuquerque Center
Thu 05:21:17 PM 35.1475 -108.7039 244° Southwest 403 464 36,000  Level Albuquerque Center
Thu 05:22:19 PM 35.0928 -108.8408 244° Southwest 401 461 36,000  Level Albuquerque Center
Thu 05:23:21 PM 35.0472 -108.9572 244° Southwest 397 457 36,000  Level Albuquerque Center
Thu 05:24:23 PM 34.9922 -109.0931 244° Southwest 398 458 36,000  Level Albuquerque Center
Thu 05:25:25 PM 34.9478 -109.2094 245° Southwest 397 457 36,000  Level Albuquerque Center
Thu 05:26:27 PM 34.9053 -109.3278 246° West 396 456 36,000  Level Albuquerque Center
Thu 05:27:29 PM 34.8564 -109.4642 246° West 394 453 36,000  Level Albuquerque Center
Thu 05:28:31 PM 34.8114 -109.5750 244° Southwest 387 445 36,000  Level Albuquerque Center
Thu 05:29:33 PM 34.7614 -109.7122 246° West 392 451 36,000  Level Albuquerque Center
Thu 05:30:35 PM 34.7181 -109.8283 246° West 394 453 36,000  Level Albuquerque Center
Thu 05:31:37 PM 34.6672 -109.9664 246° West 398 458 36,000  Level Albuquerque Center
Thu 05:32:39 PM 34.6247 -110.0833 246° West 396 456 36,000 -48 Level Albuquerque Center
Thu 05:33:42 PM 34.5769 -110.2233 248° West 400 460 35,900 -1,248 Descending Albuquerque Center
Thu 05:34:44 PM 34.5311 -110.3328 243° Southwest 388 447 33,400 -2,129 Descending Albuquerque Center
Thu 05:35:46 PM 34.4903 -110.4511 247° West 410 472 31,500 -2,226 Descending Albuquerque Center
Thu 05:36:48 PM 34.4356 -110.5958 245° Southwest 399 459 28,800 -2,323 Descending Albuquerque Center
Thu 05:37:50 PM 34.3914 -110.7119 245° Southwest 385 443 26,700 -1,984 Descending Albuquerque Center
Thu 05:38:52 PM 34.3381 -110.8189 239° Southwest 377 434 24,700 -1,984 Descending Albuquerque Center
Thu 05:39:54 PM 34.2658 -110.9106 226° Southwest 374 430 22,600 -1,984 Descending Albuquerque Center
Thu 05:40:56 PM 34.1950 -111.0028 227° Southwest 375 432 20,600 -1,887 Descending Albuquerque Center
Thu 05:41:58 PM 34.1258 -111.0908 227° Southwest 366 421 18,700 -2,032 Descending Albuquerque Center
Thu 05:43:00 PM 34.0447 -111.1953 227° Southwest 358 412 16,400 -2,081 Descending Albuquerque Center
Thu 05:44:02 PM 33.9767 -111.2828 227° Southwest 356 410 14,400 -1,887 Descending Albuquerque Center
Thu 05:45:04 PM 33.9108 -111.3669 227° Southwest 348 400 12,500 -1,548 Descending Albuquerque Center
Thu 05:46:06 PM 33.8411 -111.4411 221° Southwest 333 383 11,200 -1,016 Descending Albuquerque Center
Thu 05:47:08 PM 33.7681 -111.5022 215° Southwest 318 366 10,400 -968 Descending Albuquerque Center
Thu 05:48:10 PM 33.6994 -111.5614 216° Southwest 301 346 9,200 -871 Descending Albuquerque Center
Thu 05:49:12 PM 33.6364 -111.6158 216° Southwest 279 321 8,600 -1,065 Descending Albuquerque Center
Thu 05:50:14 PM 33.5628 -111.6767 215° Southwest 268 308 7,000 -1,452 Descending Albuquerque Center
Thu 05:51:16 PM 33.5017 -111.7283 215° Southwest 269 310 5,600 -1,152 Descending Albuquerque Center
Thu 05:52:19 PM 33.4606 -111.7828 228° Southwest 220 253 4,600 -960 Descending Albuquerque Center
Thu 05:53:21 PM 33.4408 -111.8394 247° West 193 222 3,600 -919 Descending Albuquerque Center
Thu 05:54:23 PM 33.4406 -111.8944 270° West 170 196 2,700 -823 Descending Albuquerque Center
Thu 05:55:25 PM 33.4411 -111.9453 271° West 155 178 1,900 -774 Descending Albuquerque Center
Thu 05:56:27 PM 33.4397 -111.9975 268° West 154 177 1,100 -774 Descending Albuquerque Center
Thu 05:58:00 PM 33.4343 -112.0116 270° West  Level Estimated

Login

Don't have an account? Register now (free) for customized features, flight alerts, and more!